Time;durP1;ratioP1;P1;durP2;ratioP2;P2;SDS_P1;SDS_P2;PMS_P1;PMS_P2;Temp;Humidity;BMP_temperature;BMP_pressure;BME280_temperature;BME280_humidity;BME280_pressure;Samples;Min_cycle;Max_cycle;Signal;HPM_P1;HPM_P2
2021/01/06 00:00:41;;;;;;;35.57;12.80;;;-0.30;99.90;;;;;;5011883;28;20494;-55
2021/01/06 00:03:10;;;;;;;39.17;15.10;;;-0.30;99.90;;;;;;5010742;28;20860;-55
2021/01/06 00:05:36;;;;;;;37.50;13.37;;;-0.30;99.90;;;;;;5010423;28;20439;-54
2021/01/06 00:08:01;;;;;;;30.77;13.03;;;-0.30;99.90;;;;;;5005730;28;20449;-54
2021/01/06 00:10:30;;;;;;;38.47;14.83;;;-0.30;99.90;;;;;;5010211;28;20218;-55
2021/01/06 00:12:56;;;;;;;32.30;13.00;;;-0.30;99.90;;;;;;5009672;28;20559;-56
2021/01/06 00:15:33;;;;;;;35.07;13.87;;;-0.30;99.90;;;;;;5008137;28;21274;-53
2021/01/06 00:18:02;;;;;;;41.60;13.70;;;-0.30;99.90;;;;;;5010055;28;20437;-55
2021/01/06 00:20:30;;;;;;;33.03;14.43;;;-0.30;99.90;;;;;;5004042;28;20444;-53
2021/01/06 00:22:56;;;;;;;38.43;15.10;;;-0.30;99.90;;;;;;5012732;28;20422;-55
2021/01/06 00:25:27;;;;;;;41.10;14.97;;;-0.30;99.90;;;;;;5005594;28;20487;-55
2021/01/06 00:27:53;;;;;;;34.10;13.50;;;-0.30;99.90;;;;;;5008177;28;20491;-54
2021/01/06 00:30:28;;;;;;;35.83;15.40;;;-0.30;99.90;;;;;;5011964;28;20453;-53
2021/01/06 00:32:54;;;;;;;36.87;14.40;;;-0.30;99.90;;;;;;5007557;28;20431;-57
2021/01/06 00:35:23;;;;;;;39.77;14.33;;;-0.30;99.90;;;;;;5010107;28;20444;-57
2021/01/06 00:37:57;;;;;;;37.60;14.53;;;-0.30;99.90;;;;;;5010365;28;20491;-54
2021/01/06 00:40:28;;;;;;;34.23;13.17;;;-0.30;99.90;;;;;;5007808;28;20656;-57
2021/01/06 00:43:02;;;;;;;27.67;14.00;;;-0.30;99.90;;;;;;5001812;28;20423;-56
2021/01/06 00:45:28;;;;;;;30.63;14.37;;;-0.30;99.90;;;;;;5010672;28;20445;-57
2021/01/06 00:47:54;;;;;;;41.03;15.60;;;-0.30;99.90;;;;;;5009711;28;20425;-57
2021/01/06 00:50:26;;;;;;;34.97;13.63;;;-0.30;99.90;;;;;;5006342;28;20232;-54
2021/01/06 00:52:52;;;;;;;37.20;13.83;;;-0.30;99.90;;;;;;5000839;28;20429;-54
2021/01/06 00:55:22;;;;;;;41.90;15.90;;;-0.30;99.90;;;;;;5010456;28;20458;-56
2021/01/06 00:57:48;;;;;;;32.43;13.83;;;-0.30;99.90;;;;;;5012005;28;20468;-54
2021/01/06 01:00:19;;;;;;;42.50;15.20;;;-0.30;99.90;;;;;;5008835;28;20204;-55
2021/01/06 01:02:50;;;;;;;39.53;14.80;;;-0.30;99.90;;;;;;5009486;28;20437;-55
2021/01/06 01:05:20;;;;;;;38.47;14.33;;;-0.20;99.90;;;;;;5011066;28;20759;-54
2021/01/06 01:07:47;;;;;;;39.60;15.50;;;-0.20;99.90;;;;;;5010009;28;20507;-55
2021/01/06 01:10:33;;;;;;;43.93;16.57;;;-0.20;99.90;;;;;;5006790;28;20441;-55
2021/01/06 01:13:00;;;;;;;37.53;14.57;;;-0.20;99.90;;;;;;5005510;28;20429;-54
2021/01/06 01:15:32;;;;;;;42.97;14.33;;;-0.20;99.90;;;;;;5008884;28;20471;-54
2021/01/06 01:18:18;;;;;;;35.30;14.80;;;-0.20;99.90;;;;;;5005734;28;20452;-53
2021/01/06 01:20:47;;;;;;;35.83;14.23;;;-0.20;99.90;;;;;;5007861;28;20441;-52
2021/01/06 01:23:14;;;;;;;38.70;14.63;;;-0.20;99.90;;;;;;5009413;28;20428;-54
2021/01/06 01:25:39;;;;;;;35.37;14.90;;;-0.20;99.90;;;;;;5003568;28;20930;-53
2021/01/06 01:28:05;;;;;;;35.77;14.80;;;-0.10;99.90;;;;;;5009359;28;20539;-55
2021/01/06 01:30:31;;;;;;;33.60;14.43;;;-0.10;99.90;;;;;;5006380;28;20205;-55
2021/01/06 01:32:57;;;;;;;39.50;15.27;;;-0.10;99.90;;;;;;5010079;28;20833;-55
2021/01/06 01:35:26;;;;;;;39.47;14.60;;;-0.10;99.90;;;;;;5006406;28;20201;-53
2021/01/06 01:37:54;;;;;;;37.83;14.87;;;-0.10;99.90;;;;;;5010185;28;20178;-54
2021/01/06 01:40:27;;;;;;;48.43;16.80;;;-0.10;99.90;;;;;;5012611;28;20499;-54
2021/01/06 01:42:54;;;;;;;46.80;17.20;;;-0.10;99.90;;;;;;5007265;28;20475;-55
2021/01/06 01:45:43;;;;;;;51.10;18.00;;;-0.10;99.90;;;;;;5013541;28;20445;-55
2021/01/06 01:48:35;;;;;;;48.57;19.00;;;-0.10;99.90;;;;;;5016229;28;20490;-55
2021/01/06 01:51:13;;;;;;;39.47;15.77;;;-0.10;99.90;;;;;;5009924;28;20440;-56
2021/01/06 01:54:07;;;;;;;42.80;16.30;;;0.00;99.90;;;;;;5012198;28;20447;-53
2021/01/06 01:56:39;;;;;;;36.60;14.90;;;0.00;99.90;;;;;;5013698;28;20462;-55
2021/01/06 01:59:15;;;;;;;37.13;14.23;;;-0.10;99.90;;;;;;5009725;28;20495;-55
2021/01/06 02:01:42;;;;;;;39.03;14.30;;;-0.10;99.90;;;;;;5011575;28;20463;-54
2021/01/06 02:04:16;;;;;;;38.77;15.50;;;-0.10;99.90;;;;;;5015688;28;20453;-55
2021/01/06 02:06:59;;;;;;;40.10;14.20;;;-0.10;99.90;;;;;;5012460;28;20436;-53
2021/01/06 02:09:36;;;;;;;37.37;13.90;;;-0.10;99.90;;;;;;5013847;28;20432;-53
2021/01/06 02:12:15;;;;;;;39.03;15.50;;;-0.10;99.90;;;;;;5009498;28;20436;-54
2021/01/06 02:15:02;;;;;;;40.90;15.10;;;-0.10;99.90;;;;;;5026640;22;20491;-60
2021/01/06 02:17:28;;;;;;;37.20;15.40;;;-0.10;99.90;;;;;;5030599;28;20443;-61
2021/01/06 02:19:54;;;;;;;45.60;16.00;;;-0.10;99.90;;;;;;5017990;28;20891;-60
2021/01/06 02:22:20;;;;;;;38.17;15.37;;;-0.10;99.90;;;;;;5029942;28;20432;-62
2021/01/06 02:24:49;;;;;;;38.67;15.87;;;-0.10;99.90;;;;;;5029892;28;20222;-61
2021/01/06 02:27:15;;;;;;;41.00;14.30;;;-0.10;99.90;;;;;;5012009;28;20434;-61
2021/01/06 02:29:44;;;;;;;37.83;15.63;;;-0.10;99.90;;;;;;5010275;28;20897;-61
2021/01/06 02:32:11;;;;;;;43.73;15.00;;;-0.10;99.90;;;;;;5012864;28;20433;-62
2021/01/06 02:34:39;;;;;;;41.67;15.37;;;-0.10;99.90;;;;;;5010915;28;20823;-60
2021/01/06 02:37:06;;;;;;;38.43;16.00;;;-0.10;99.90;;;;;;5010728;28;20440;-61
2021/01/06 02:39:32;;;;;;;37.27;15.23;;;-0.10;99.90;;;;;;5012169;28;20464;-61
2021/01/06 02:42:01;;;;;;;38.27;14.30;;;-0.10;99.90;;;;;;5010677;28;20433;-61
2021/01/06 02:44:30;;;;;;;38.70;15.90;;;0.00;99.90;;;;;;5011746;28;20420;-61
2021/01/06 02:46:56;;;;;;;36.93;15.93;;;-0.10;99.90;;;;;;5010560;28;20511;-59
2021/01/06 02:49:22;;;;;;;43.37;15.17;;;-0.10;99.90;;;;;;5003995;28;20444;-61
2021/01/06 02:52:01;;;;;;;42.67;14.37;;;-0.10;99.90;;;;;;5004149;28;20421;-61
2021/01/06 02:54:36;;;;;;;37.67;15.20;;;-0.10;99.90;;;;;;5012780;28;20430;-60
2021/01/06 02:57:03;;;;;;;35.30;14.90;;;-0.10;99.90;;;;;;5009647;28;20436;-61
2021/01/06 02:59:39;;;;;;;30.37;13.20;;;-0.10;99.90;;;;;;5008482;28;20519;-61
2021/01/06 03:02:06;;;;;;;47.40;17.20;;;-0.10;99.90;;;;;;5012632;28;20513;-62
2021/01/06 03:04:37;;;;;;;40.13;16.80;;;-0.10;99.90;;;;;;5009648;28;20999;-60
2021/01/06 03:07:05;;;;;;;38.33;14.87;;;-0.10;99.90;;;;;;5009883;28;20437;-61
2021/01/06 03:09:38;;;;;;;35.80;15.23;;;-0.10;99.90;;;;;;5013350;28;20810;-61
2021/01/06 03:12:18;;;;;;;34.50;13.50;;;-0.10;99.90;;;;;;5010169;28;20432;-60
2021/01/06 03:14:44;;;;;;;32.87;13.90;;;0.00;99.90;;;;;;5010898;28;20459;-60
2021/01/06 03:17:15;;;;;;;34.27;13.33;;;0.00;99.90;;;;;;5010168;28;20452;-60
2021/01/06 03:19:46;;;;;;;34.00;14.73;;;0.00;99.90;;;;;;5011865;28;20885;-62
2021/01/06 03:22:15;;;;;;;29.63;12.57;;;0.00;99.90;;;;;;5011827;28;20934;-61
2021/01/06 03:24:49;;;;;;;33.87;13.37;;;0.00;99.90;;;;;;5010133;28;20467;-61
2021/01/06 03:27:15;;;;;;;34.97;13.33;;;0.00;99.90;;;;;;5009996;28;20433;-61
2021/01/06 03:29:44;;;;;;;33.63;14.00;;;0.00;99.90;;;;;;5012051;28;20433;-61
2021/01/06 03:32:28;;;;;;;31.53;14.43;;;0.00;99.90;;;;;;5010678;28;20934;-61
2021/01/06 03:35:14;;;;;;;39.23;14.83;;;0.00;99.90;;;;;;5007782;28;20946;-61
2021/01/06 03:37:47;;;;;;;35.07;14.30;;;0.00;99.90;;;;;;5012337;28;20436;-59
2021/01/06 03:40:23;;;;;;;37.30;15.50;;;0.00;99.90;;;;;;5009043;28;20804;-61
2021/01/06 03:42:49;;;;;;;37.13;13.97;;;-0.10;99.90;;;;;;5009693;28;20480;-60
2021/01/06 03:45:19;;;;;;;42.30;15.63;;;-0.10;99.90;;;;;;5012577;28;20476;-61
2021/01/06 03:47:52;;;;;;;38.97;13.90;;;-0.10;99.90;;;;;;5008761;28;20816;-60
2021/01/06 03:50:28;;;;;;;43.33;15.73;;;-0.10;99.90;;;;;;4999729;28;20789;-59
2021/01/06 03:53:21;;;;;;;37.70;15.00;;;-0.10;99.90;;;;;;5005450;28;20846;-61
2021/01/06 03:56:01;;;;;;;41.57;16.20;;;-0.10;99.90;;;;;;5012247;28;20536;-61
2021/01/06 03:58:47;;;;;;;37.93;15.40;;;-0.20;99.90;;;;;;5009489;28;20434;-61
2021/01/06 04:01:31;;;;;;;42.17;15.13;;;-0.20;99.90;;;;;;5011192;28;20499;-60
2021/01/06 04:04:20;;;;;;;37.57;14.93;;;-0.10;99.90;;;;;;5011507;28;20435;-60
2021/01/06 04:06:50;;;;;;;43.10;15.10;;;-0.10;99.90;;;;;;5000267;28;20480;-61
2021/01/06 04:09:38;;;;;;;39.63;14.10;;;-0.10;99.90;;;;;;5010919;28;20441;-62
2021/01/06 04:12:11;;;;;;;39.57;14.97;;;-0.10;99.90;;;;;;5008960;28;20437;-59
2021/01/06 04:14:38;;;;;;;36.47;14.73;;;-0.10;99.90;;;;;;5008545;28;20425;-59
2021/01/06 04:17:16;;;;;;;37.83;15.60;;;-0.10;99.90;;;;;;5008663;28;20456;-59
2021/01/06 04:19:47;;;;;;;34.50;14.23;;;-0.10;99.90;;;;;;5010424;28;20487;-61
2021/01/06 04:22:14;;;;;;;41.97;15.63;;;-0.10;99.90;;;;;;5011061;28;20440;-61
2021/01/06 04:24:39;;;;;;;40.37;15.23;;;-0.10;99.90;;;;;;5011871;28;20840;-60
2021/01/06 04:27:06;;;;;;;37.33;13.93;;;-0.10;99.90;;;;;;5008694;28;20433;-60
2021/01/06 04:29:32;;;;;;;38.43;16.50;;;-0.10;99.90;;;;;;5009593;28;20182;-60
2021/01/06 04:31:57;;;;;;;41.97;15.87;;;-0.10;99.90;;;;;;5009157;28;21005;-60
2021/01/06 04:34:23;;;;;;;37.07;14.37;;;-0.10;99.90;;;;;;5007865;28;20458;-61
2021/01/06 04:36:49;;;;;;;40.33;15.30;;;0.00;99.90;;;;;;5005714;28;20189;-60
2021/01/06 04:39:17;;;;;;;33.13;14.53;;;-0.10;99.90;;;;;;5009082;28;20280;-61
2021/01/06 04:42:04;;;;;;;53.43;17.20;;;0.00;99.90;;;;;;5010584;28;20217;-61
2021/01/06 04:45:07;;;;;;;32.27;13.63;;;0.00;99.90;;;;;;5010578;28;20555;-61
2021/01/06 04:48:03;;;;;;;32.33;13.90;;;0.00;99.90;;;;;;5009514;28;20435;-62
2021/01/06 04:50:48;;;;;;;39.03;13.63;;;0.00;99.90;;;;;;5007271;28;20474;-62
2021/01/06 04:53:33;;;;;;;39.40;13.10;;;0.00;99.90;;;;;;5009161;28;20468;-61
2021/01/06 04:56:42;;;;;;;44.03;15.40;;;0.00;99.90;;;;;;5009116;28;20437;-59
2021/01/06 04:59:32;;;;;;;41.83;14.17;;;0.00;99.90;;;;;;4964888;28;20465;-61
2021/01/06 05:02:04;;;;;;;42.33;15.03;;;0.00;99.90;;;;;;5000924;28;20429;-60
2021/01/06 05:04:57;;;;;;;34.43;14.17;;;0.00;99.90;;;;;;4999491;28;20955;-61
2021/01/06 05:07:57;;;;;;;40.00;13.97;;;0.00;99.90;;;;;;5008955;28;20465;-60
2021/01/06 05:10:32;;;;;;;41.43;15.73;;;0.00;99.90;;;;;;5008188;28;20476;-63
2021/01/06 05:13:23;;;;;;;36.33;13.00;;;0.00;99.90;;;;;;5009863;28;20797;-60
2021/01/06 05:16:00;;;;;;;36.50;14.97;;;-0.10;99.90;;;;;;5008910;28;20452;-63
2021/01/06 05:18:27;;;;;;;37.03;15.23;;;-0.10;99.90;;;;;;5010179;28;20995;-61
2021/01/06 05:20:54;;;;;;;37.87;15.40;;;-0.10;99.90;;;;;;5010194;28;20434;-61
2021/01/06 05:23:23;;;;;;;37.47;15.67;;;-0.10;99.90;;;;;;5010764;28;20942;-61
2021/01/06 05:25:50;;;;;;;37.37;15.47;;;-0.20;99.90;;;;;;5009680;28;20523;-60
2021/01/06 05:28:18;;;;;;;45.70;16.80;;;-0.20;99.90;;;;;;5009871;28;20857;-61
2021/01/06 05:30:55;;;;;;;42.83;14.50;;;-0.20;99.90;;;;;;5010583;28;20436;-61
2021/01/06 05:33:40;;;;;;;41.23;16.60;;;-0.10;99.90;;;;;;5008747;28;20433;-60
2021/01/06 05:36:10;;;;;;;31.20;14.83;;;-0.10;99.90;;;;;;4997691;28;20453;-60
2021/01/06 05:38:38;;;;;;;39.47;15.00;;;-0.20;99.90;;;;;;5010851;28;20492;-63
2021/01/06 05:41:21;;;;;;;33.37;14.77;;;-0.20;99.90;;;;;;5010067;28;20946;-61
2021/01/06 05:43:53;;;;;;;40.13;15.57;;;-0.20;99.90;;;;;;5000949;28;20433;-60
2021/01/06 05:46:30;;;;;;;34.87;15.20;;;-0.20;99.90;;;;;;5010855;28;20227;-61
2021/01/06 05:48:58;;;;;;;39.03;15.70;;;-0.20;99.90;;;;;;5010589;28;20866;-62
2021/01/06 05:51:26;;;;;;;42.27;15.57;;;-0.20;99.90;;;;;;5008467;28;20445;-60
2021/01/06 05:54:06;;;;;;;40.50;15.83;;;-0.20;99.90;;;;;;5010247;28;20894;-59
2021/01/06 05:56:45;;;;;;;32.20;13.50;;;-0.30;99.90;;;;;;5006027;28;20533;-63
2021/01/06 05:59:22;;;;;;;40.20;15.50;;;-0.30;99.90;;;;;;5004625;28;20477;-61
2021/01/06 06:02:05;;;;;;;32.47;14.70;;;-0.30;99.90;;;;;;5006808;28;20460;-61
2021/01/06 06:04:40;;;;;;;36.27;14.43;;;-0.30;99.90;;;;;;5008169;28;20522;-63
2021/01/06 06:07:23;;;;;;;38.03;14.70;;;-0.30;99.90;;;;;;5007505;28;21138;-64
2021/01/06 06:10:19;;;;;;;31.30;12.53;;;-0.30;99.90;;;;;;5004733;28;20432;-61
2021/01/06 06:13:13;;;;;;;34.07;15.43;;;-0.30;99.90;;;;;;4991392;28;20524;-61
2021/01/06 06:16:04;;;;;;;38.40;14.50;;;-0.30;99.90;;;;;;4999050;28;20468;-61
2021/01/06 06:18:42;;;;;;;42.23;15.90;;;-0.30;99.90;;;;;;5011370;28;20511;-61
2021/01/06 06:21:50;;;;;;;38.90;14.73;;;-0.20;99.90;;;;;;5004240;28;20857;-61
2021/01/06 06:24:38;;;;;;;38.60;15.57;;;-0.20;99.90;;;;;;4968614;28;20432;-61
2021/01/06 06:27:23;;;;;;;36.77;15.10;;;-0.20;99.90;;;;;;5011453;28;20793;-60
2021/01/06 06:30:03;;;;;;;34.20;15.53;;;-0.20;99.90;;;;;;5015936;28;20423;-59
2021/01/06 06:32:34;;;;;;;39.13;14.97;;;-0.20;99.90;;;;;;5013081;28;20567;-62
2021/01/06 06:35:25;;;;;;;36.53;14.40;;;-0.20;99.90;;;;;;5010623;28;20457;-60
2021/01/06 06:37:57;;;;;;;47.00;16.97;;;-0.20;99.90;;;;;;5012515;28;20446;-61
2021/01/06 06:40:25;;;;;;;38.10;14.50;;;-0.20;99.90;;;;;;5011541;28;20553;-61
2021/01/06 06:43:02;;;;;;;39.80;15.07;;;-0.20;99.90;;;;;;5006533;28;20523;-61
2021/01/06 06:45:40;;;;;;;42.73;16.30;;;-0.20;99.90;;;;;;5014093;28;20474;-61
2021/01/06 06:48:15;;;;;;;32.50;14.00;;;-0.20;99.90;;;;;;5011813;28;20436;-60
2021/01/06 06:50:50;;;;;;;37.87;15.27;;;-0.20;99.90;;;;;;5013946;28;20432;-61
2021/01/06 06:53:30;;;;;;;38.67;16.83;;;-0.20;99.90;;;;;;5010743;28;20440;-61
2021/01/06 06:56:14;;;;;;;43.03;15.60;;;-0.20;99.90;;;;;;5014548;28;20785;-61
2021/01/06 06:59:04;;;;;;;38.03;14.93;;;-0.20;99.90;;;;;;4999013;28;20460;-60
2021/01/06 07:01:42;;;;;;;47.63;16.53;;;-0.20;99.90;;;;;;5008133;28;20432;-61
2021/01/06 07:04:32;;;;;;;42.73;16.50;;;-0.30;99.90;;;;;;5011349;28;20434;-61
2021/01/06 07:07:01;;;;;;;43.50;17.07;;;-0.30;99.90;;;;;;5004246;28;20430;-61
2021/01/06 07:09:32;;;;;;;39.93;16.80;;;-0.30;99.90;;;;;;5010755;28;20440;-60
2021/01/06 07:12:01;;;;;;;37.33;15.70;;;-0.20;99.90;;;;;;5013412;28;20418;-61
2021/01/06 07:14:50;;;;;;;39.63;14.60;;;-0.20;99.90;;;;;;5010257;28;20811;-60
2021/01/06 07:17:28;;;;;;;43.27;16.13;;;-0.20;99.90;;;;;;5009897;28;20451;-61
2021/01/06 07:19:58;;;;;;;39.90;16.17;;;-0.20;99.90;;;;;;5011596;28;20475;-60
2021/01/06 07:22:45;;;;;;;36.17;15.20;;;-0.20;99.90;;;;;;5011906;28;20495;-61
2021/01/06 07:25:16;;;;;;;44.30;16.73;;;-0.20;99.90;;;;;;5012927;28;20457;-60
2021/01/06 07:27:44;;;;;;;40.00;16.57;;;-0.20;99.90;;;;;;5009763;28;20448;-60
2021/01/06 07:30:11;;;;;;;37.40;15.47;;;-0.20;99.90;;;;;;5012050;28;20943;-61
2021/01/06 07:32:43;;;;;;;49.80;18.37;;;-0.20;99.90;;;;;;5024280;28;20436;-58
2021/01/06 07:35:23;;;;;;;46.70;17.37;;;-0.20;99.90;;;;;;5010976;28;20480;-61
2021/01/06 07:38:16;;;;;;;42.77;17.43;;;-0.20;99.90;;;;;;4998405;28;20445;-61
2021/01/06 07:40:44;;;;;;;45.20;15.30;;;-0.20;99.90;;;;;;5006576;28;20575;-62
2021/01/06 07:43:10;;;;;;;42.90;17.50;;;-0.20;99.90;;;;;;5010471;28;20499;-60
2021/01/06 07:45:49;;;;;;;43.70;17.50;;;-0.20;99.90;;;;;;5006665;28;20460;-61
2021/01/06 07:48:18;;;;;;;45.87;18.23;;;-0.20;99.90;;;;;;5005747;28;20177;-60
2021/01/06 07:51:10;;;;;;;50.73;18.10;;;-0.10;99.90;;;;;;4999837;28;20457;-61
2021/01/06 07:53:44;;;;;;;44.87;17.20;;;-0.10;99.90;;;;;;4987911;28;20450;-61
2021/01/06 07:56:24;;;;;;;49.17;17.60;;;-0.10;99.90;;;;;;5007700;28;20449;-60
2021/01/06 07:59:02;;;;;;;46.00;17.27;;;0.00;99.90;;;;;;5004604;28;20471;-61
2021/01/06 08:01:55;;;;;;;48.17;18.50;;;0.00;99.90;;;;;;4996474;28;20513;-61
2021/01/06 08:04:25;;;;;;;45.70;18.17;;;0.00;99.90;;;;;;5001451;28;20804;-61
2021/01/06 08:06:56;;;;;;;45.53;17.80;;;0.00;99.90;;;;;;5005855;28;20445;-61
2021/01/06 08:09:40;;;;;;;41.67;17.77;;;0.00;99.90;;;;;;5005276;28;20436;-62
2021/01/06 08:12:40;;;;;;;51.03;18.60;;;0.00;99.90;;;;;;5002423;28;20445;-62
2021/01/06 08:15:18;;;;;;;46.87;17.80;;;0.00;99.90;;;;;;4975735;28;21053;-61
2021/01/06 08:20:28;;;;;;;43.40;17.20;;;0.00;99.90;;;;;;5071124;28;20821;-54
2021/01/06 08:23:20;;;;;;;41.30;17.07;;;0.00;99.90;;;;;;5047839;28;20525;-55
2021/01/06 08:26:15;;;;;;;39.47;16.53;;;0.00;99.90;;;;;;5044946;28;20439;-56
2021/01/06 08:28:41;;;;;;;40.70;16.07;;;0.00;99.90;;;;;;5049613;28;20479;-58
2021/01/06 08:31:27;;;;;;;38.63;17.10;;;0.00;99.90;;;;;;5038774;28;20945;-55
2021/01/06 08:33:56;;;;;;;49.73;20.80;;;0.00;99.90;;;;;;5043325;28;20290;-54
2021/01/06 08:36:42;;;;;;;48.37;19.40;;;0.00;99.90;;;;;;5051096;28;20959;-57
2021/01/06 08:39:28;;;;;;;45.37;17.70;;;0.00;99.90;;;;;;5044659;28;20562;-54
2021/01/06 08:41:57;;;;;;;50.27;19.70;;;0.10;99.90;;;;;;5049654;28;20486;-55
2021/01/06 08:44:46;;;;;;;49.70;17.53;;;0.10;99.90;;;;;;5050870;28;20426;-62
2021/01/06 08:47:25;;;;;;;47.83;18.50;;;0.10;99.90;;;;;;5047096;28;20517;-56
2021/01/06 08:49:51;;;;;;;41.83;17.53;;;0.20;99.90;;;;;;5042246;28;20543;-55
2021/01/06 08:52:17;;;;;;;46.10;18.10;;;0.20;99.90;;;;;;5040707;28;20936;-56
2021/01/06 08:55:15;;;;;;;40.27;16.53;;;0.20;99.90;;;;;;5042597;28;20810;-56
2021/01/06 08:57:41;;;;;;;47.70;17.57;;;0.30;99.90;;;;;;5038956;28;20198;-56
2021/01/06 09:00:28;;;;;;;40.53;16.30;;;0.40;99.90;;;;;;5042074;28;21303;-54
2021/01/06 09:03:10;;;;;;;47.67;18.07;;;0.40;99.90;;;;;;5041324;28;20177;-57
2021/01/06 09:05:54;;;;;;;41.77;16.90;;;0.40;99.90;;;;;;5039167;28;20426;-56
2021/01/06 09:08:31;;;;;;;41.13;17.33;;;0.50;99.90;;;;;;5029971;28;20459;-58
2021/01/06 09:11:24;;;;;;;40.20;17.53;;;0.50;99.90;;;;;;5042410;28;20470;-55
2021/01/06 09:13:58;;;;;;;43.23;19.37;;;0.60;99.90;;;;;;5050303;28;20446;-57
2021/01/06 09:16:31;;;;;;;40.93;17.70;;;0.60;99.90;;;;;;5041589;28;20427;-54
2021/01/06 09:19:13;;;;;;;41.23;16.50;;;0.60;99.90;;;;;;5041557;28;20470;-53
2021/01/06 09:21:40;;;;;;;47.07;17.70;;;0.60;99.90;;;;;;5041812;28;20523;-55
2021/01/06 09:24:10;;;;;;;39.93;17.23;;;0.60;99.90;;;;;;5043376;28;20438;-54
2021/01/06 09:26:38;;;;;;;37.83;15.63;;;0.60;99.90;;;;;;5042375;28;20443;-56
2021/01/06 09:29:32;;;;;;;35.87;16.43;;;0.60;99.90;;;;;;5042548;28;20459;-57
2021/01/06 09:32:37;;;;;;;41.53;16.60;;;0.60;99.90;;;;;;5041268;28;20793;-56
2021/01/06 09:35:18;;;;;;;44.67;15.70;;;0.70;99.90;;;;;;5036367;28;20432;-53
2021/01/06 09:37:58;;;;;;;39.20;15.43;;;0.70;99.90;;;;;;5036652;28;20533;-55
2021/01/06 09:40:27;;;;;;;36.03;14.00;;;0.60;99.90;;;;;;5043470;28;20473;-54
2021/01/06 09:42:59;;;;;;;34.20;14.40;;;0.70;99.90;;;;;;5037959;28;20552;-55
2021/01/06 09:45:27;;;;;;;35.27;15.23;;;0.70;99.90;;;;;;5035103;28;20982;-56
2021/01/06 09:48:03;;;;;;;35.93;15.17;;;0.80;99.90;;;;;;5031771;28;20751;-54
2021/01/06 09:50:42;;;;;;;36.33;15.77;;;0.80;99.90;;;;;;5035379;28;20444;-55
2021/01/06 09:53:15;;;;;;;30.40;13.70;;;0.90;99.90;;;;;;5040596;28;20442;-54
2021/01/06 09:55:44;;;;;;;31.23;14.50;;;0.90;99.90;;;;;;5037442;28;20439;-55
2021/01/06 09:58:40;;;;;;;38.60;15.77;;;1.00;99.90;;;;;;5035412;28;20448;-54
2021/01/06 10:01:26;;;;;;;37.50;15.33;;;1.00;99.90;;;;;;5037646;28;20950;-55
2021/01/06 10:03:56;;;;;;;31.27;13.30;;;1.10;99.90;;;;;;5037505;28;20542;-56
2021/01/06 10:06:45;;;;;;;35.93;15.57;;;1.10;99.90;;;;;;5041419;28;20438;-55
2021/01/06 10:09:29;;;;;;;34.87;14.40;;;1.00;99.90;;;;;;5042172;28;20553;-54
2021/01/06 10:12:16;;;;;;;36.70;14.63;;;1.00;99.90;;;;;;5043478;28;20473;-56
2021/01/06 10:15:13;;;;;;;32.83;15.13;;;1.00;99.90;;;;;;5048109;28;20431;-54
2021/01/06 10:17:50;;;;;;;37.73;14.97;;;1.00;99.90;;;;;;5035028;28;20814;-57
2021/01/06 10:20:40;;;;;;;28.00;13.80;;;1.00;99.90;;;;;;5041262;28;20504;-57
2021/01/06 10:23:18;;;;;;;32.53;14.47;;;1.00;99.90;;;;;;5046592;28;20446;-56
2021/01/06 10:25:52;;;;;;;31.47;14.27;;;1.10;99.90;;;;;;5044094;28;20948;-55
2021/01/06 10:28:39;;;;;;;35.70;15.20;;;1.10;99.90;;;;;;5041092;28;20485;-55
2021/01/06 10:31:05;;;;;;;39.47;15.77;;;1.10;99.90;;;;;;5049671;28;20429;-57
2021/01/06 10:33:32;;;;;;;34.93;15.57;;;1.10;99.90;;;;;;5045902;28;20431;-54
2021/01/06 10:36:15;;;;;;;33.60;15.03;;;1.10;99.90;;;;;;5037974;28;20189;-55
2021/01/06 10:38:44;;;;;;;40.60;15.97;;;1.20;99.90;;;;;;5048025;28;20459;-50
2021/01/06 10:41:30;;;;;;;36.37;14.67;;;1.20;99.90;;;;;;5045047;28;20408;-56
2021/01/06 10:43:56;;;;;;;37.47;14.90;;;1.20;99.90;;;;;;5053354;28;20497;-57
2021/01/06 10:46:43;;;;;;;39.07;14.67;;;1.30;99.90;;;;;;5044890;28;20421;-56
2021/01/06 10:49:19;;;;;;;30.37;13.93;;;1.30;99.90;;;;;;5044356;28;20470;-56
2021/01/06 10:52:00;;;;;;;34.17;14.27;;;1.30;99.90;;;;;;5044310;28;20965;-55
2021/01/06 10:54:35;;;;;;;30.30;13.50;;;1.40;99.90;;;;;;5042040;28;20929;-55
2021/01/06 10:57:27;;;;;;;30.67;13.73;;;1.40;99.90;;;;;;5045086;28;20943;-55
2021/01/06 11:00:19;;;;;;;30.77;13.80;;;1.50;99.90;;;;;;5043036;28;20550;-56
2021/01/06 11:03:18;;;;;;;37.17;12.93;;;1.50;99.90;;;;;;5038935;28;20846;-54
2021/01/06 11:05:53;;;;;;;29.37;12.33;;;1.50;99.90;;;;;;5038494;28;20443;-56
2021/01/06 11:08:46;;;;;;;28.70;13.40;;;1.50;99.90;;;;;;5044676;28;20454;-54
2021/01/06 11:11:34;;;;;;;28.33;11.73;;;1.50;99.90;;;;;;5046265;28;20855;-55
2021/01/06 11:14:00;;;;;;;26.73;12.27;;;1.50;99.90;;;;;;5040245;28;20475;-54
2021/01/06 11:16:34;;;;;;;26.50;11.80;;;1.50;99.90;;;;;;5037834;28;20458;-53
2021/01/06 11:18:59;;;;;;;23.10;12.30;;;1.50;99.90;;;;;;5040099;28;20915;-54
2021/01/06 11:21:39;;;;;;;26.67;12.30;;;1.50;99.90;;;;;;5033065;28;20454;-59
2021/01/06 11:24:34;;;;;;;27.17;13.33;;;1.50;99.90;;;;;;5038816;28;20182;-58
2021/01/06 11:27:01;;;;;;;20.50;11.37;;;1.60;99.90;;;;;;5033050;28;20434;-57
2021/01/06 11:29:52;;;;;;;26.17;12.23;;;1.60;99.90;;;;;;5037294;28;20458;-57
2021/01/06 11:32:28;;;;;;;27.40;12.77;;;1.70;99.90;;;;;;5030344;28;20439;-56
2021/01/06 11:35:29;;;;;;;27.03;11.77;;;1.70;99.90;;;;;;5036699;28;20442;-56
2021/01/06 11:37:57;;;;;;;25.50;12.27;;;1.80;99.90;;;;;;5005569;28;21032;-56
2021/01/06 11:40:22;;;;;;;28.30;11.57;;;1.80;99.90;;;;;;5035783;28;20482;-58
2021/01/06 11:42:51;;;;;;;26.40;10.90;;;1.80;99.90;;;;;;5029677;28;20940;-57
2021/01/06 11:45:22;;;;;;;22.90;11.50;;;1.80;99.90;;;;;;5037954;28;20271;-61
2021/01/06 11:47:58;;;;;;;25.67;11.80;;;1.80;99.90;;;;;;5032914;28;20858;-58
2021/01/06 11:50:46;;;;;;;24.80;12.57;;;1.70;99.60;;;;;;5031001;28;20557;-57
2021/01/06 11:53:25;;;;;;;30.33;15.00;;;1.70;99.90;;;;;;5038876;28;20444;-56
2021/01/06 11:56:16;;;;;;;32.90;15.60;;;1.60;99.90;;;;;;5048215;28;20470;-62
2021/01/06 11:58:45;;;;;;;28.90;14.10;;;1.60;99.90;;;;;;5040037;28;20466;-55
2021/01/06 12:01:35;;;;;;;31.60;14.43;;;1.60;99.90;;;;;;5034787;28;20436;-64
2021/01/06 12:04:26;;;;;;;24.77;13.20;;;1.50;99.90;;;;;;5033088;28;20497;-57
2021/01/06 12:07:29;;;;;;;31.70;15.13;;;1.50;99.90;;;;;;5035682;28;20453;-58
2021/01/06 12:10:22;;;;;;;38.23;16.10;;;1.40;99.90;;;;;;5032143;28;20501;-61
2021/01/06 12:12:56;;;;;;;31.67;13.90;;;1.30;99.90;;;;;;5039960;28;20425;-59
2021/01/06 12:15:42;;;;;;;35.73;17.13;;;1.30;99.90;;;;;;5034798;28;20442;-56
2021/01/06 12:18:29;;;;;;;41.50;17.10;;;1.30;99.90;;;;;;5029087;28;20492;-56
2021/01/06 12:20:56;;;;;;;34.07;15.10;;;1.20;99.90;;;;;;5035424;28;20431;-56
2021/01/06 12:23:41;;;;;;;34.07;15.70;;;1.30;99.90;;;;;;5036171;28;20505;-55
2021/01/06 12:26:39;;;;;;;31.80;15.60;;;1.30;99.90;;;;;;5035742;28;20440;-56
2021/01/06 12:29:09;;;;;;;30.70;15.23;;;1.30;99.90;;;;;;5035038;28;20576;-55
2021/01/06 12:31:54;;;;;;;34.37;15.80;;;1.30;99.90;;;;;;5037859;28;20444;-56
2021/01/06 12:34:33;;;;;;;27.23;13.63;;;1.30;99.90;;;;;;5035262;28;20446;-57
2021/01/06 12:37:11;;;;;;;22.87;11.70;;;1.40;99.90;;;;;;5037815;28;20521;-55
2021/01/06 12:39:38;;;;;;;21.97;11.03;;;1.40;99.90;;;;;;5031359;28;21036;-55
2021/01/06 12:42:13;;;;;;;19.57;10.30;;;1.50;99.90;;;;;;5035221;28;20423;-53
2021/01/06 12:44:43;;;;;;;21.23;11.53;;;1.50;99.90;;;;;;5032619;28;20438;-56
2021/01/06 12:47:26;;;;;;;24.53;12.97;;;1.40;99.90;;;;;;5035467;28;21032;-55
2021/01/06 12:50:01;;;;;;;21.40;11.40;;;1.40;99.90;;;;;;5032994;28;20493;-56
2021/01/06 12:52:33;;;;;;;18.73;10.37;;;1.40;99.90;;;;;;5031203;28;20527;-54
2021/01/06 12:55:18;;;;;;;21.30;11.70;;;1.40;99.90;;;;;;5039265;28;20485;-54
2021/01/06 12:57:48;;;;;;;20.53;10.30;;;1.40;99.90;;;;;;5034560;28;20467;-54
2021/01/06 13:00:40;;;;;;;19.70;10.70;;;1.40;99.90;;;;;;5038818;28;20461;-55
2021/01/06 13:03:29;;;;;;;22.47;11.13;;;1.30;99.90;;;;;;5033903;28;20947;-54
2021/01/06 13:06:17;;;;;;;19.63;10.27;;;1.30;99.90;;;;;;5036010;28;20435;-55
2021/01/06 13:08:51;;;;;;;20.40;10.43;;;1.20;99.90;;;;;;5036124;28;20449;-55
2021/01/06 13:11:22;;;;;;;23.10;11.80;;;1.20;99.90;;;;;;5042653;28;20449;-54
2021/01/06 13:14:14;;;;;;;21.27;10.50;;;1.30;99.90;;;;;;5034638;28;20489;-54
2021/01/06 13:17:09;;;;;;;24.87;11.83;;;1.30;99.90;;;;;;5037354;28;20552;-55
2021/01/06 13:19:42;;;;;;;19.07;10.53;;;1.30;99.90;;;;;;5033441;28;20470;-55
2021/01/06 13:22:40;;;;;;;24.40;12.20;;;1.30;99.90;;;;;;5035326;28;20568;-55